sensor_id;sensor_type;location;lat;lon;timestamp;pressure;altitude;pressure_sealevel;temperature;humidity
60101;BME280;45978;53.646;55.930;2022-12-07T00:00:33;102340.31;;;-21.52;67.14
60101;BME280;45978;53.646;55.930;2022-12-07T00:01:38;102340.09;;;-21.54;67.25
60101;BME280;45978;53.646;55.930;2022-12-07T00:02:40;102332.69;;;-21.60;67.19
60101;BME280;45978;53.646;55.930;2022-12-07T00:03:43;102327.50;;;-21.61;67.05
60101;BME280;45978;53.646;55.930;2022-12-07T00:04:45;102325.69;;;-21.62;67.09
60101;BME280;45978;53.646;55.930;2022-12-07T00:05:46;102326.38;;;-21.63;67.32
60101;BME280;45978;53.646;55.930;2022-12-07T00:06:51;102332.22;;;-21.57;67.18
60101;BME280;45978;53.646;55.930;2022-12-07T00:07:53;102323.41;;;-21.61;67.00
60101;BME280;45978;53.646;55.930;2022-12-07T00:08:55;102333.38;;;-21.61;67.19
60101;BME280;45978;53.646;55.930;2022-12-07T00:09:56;102333.25;;;-21.73;66.72
60101;BME280;45978;53.646;55.930;2022-12-07T00:11:04;102330.19;;;-21.84;66.80
60101;BME280;45978;53.646;55.930;2022-12-07T00:12:06;102332.44;;;-21.85;67.09
60101;BME280;45978;53.646;55.930;2022-12-07T00:13:07;102339.50;;;-21.88;67.03
60101;BME280;45978;53.646;55.930;2022-12-07T00:14:12;102340.25;;;-21.95;66.79
60101;BME280;45978;53.646;55.930;2022-12-07T00:15:14;102321.75;;;-22.03;66.74
60101;BME280;45978;53.646;55.930;2022-12-07T00:16:18;102331.44;;;-21.99;66.98
60101;BME280;45978;53.646;55.930;2022-12-07T00:17:20;102333.47;;;-21.96;66.89
60101;BME280;45978;53.646;55.930;2022-12-07T00:18:21;102335.69;;;-21.92;66.96
60101;BME280;45978;53.646;55.930;2022-12-07T00:19:23;102334.78;;;-21.92;67.06
60101;BME280;45978;53.646;55.930;2022-12-07T00:20:24;102330.47;;;-21.93;66.90
60101;BME280;45978;53.646;55.930;2022-12-07T00:21:32;102324.88;;;-21.98;67.04
60101;BME280;45978;53.646;55.930;2022-12-07T00:22:34;102334.34;;;-21.96;67.13
60101;BME280;45978;53.646;55.930;2022-12-07T00:23:36;102340.66;;;-21.92;67.09
60101;BME280;45978;53.646;55.930;2022-12-07T00:24:38;102329.84;;;-21.98;66.89
60101;BME280;45978;53.646;55.930;2022-12-07T00:25:39;102333.22;;;-21.98;67.04
60101;BME280;45978;53.646;55.930;2022-12-07T00:26:41;102346.13;;;-21.94;66.97
60101;BME280;45978;53.646;55.930;2022-12-07T00:27:42;102342.38;;;-22.09;66.64
60101;BME280;45978;53.646;55.930;2022-12-07T00:28:58;102336.88;;;-22.25;66.80
60101;BME280;45978;53.646;55.930;2022-12-07T00:30:00;102335.97;;;-22.26;66.74
60101;BME280;45978;53.646;55.930;2022-12-07T00:31:06;102341.34;;;-22.23;66.83
60101;BME280;45978;53.646;55.930;2022-12-07T00:32:07;102328.72;;;-22.24;66.86
60101;BME280;45978;53.646;55.930;2022-12-07T00:33:09;102332.50;;;-22.21;66.67
60101;BME280;45978;53.646;55.930;2022-12-07T00:34:14;102333.16;;;-22.16;67.07
60101;BME280;45978;53.646;55.930;2022-12-07T00:35:15;102339.00;;;-22.10;67.04
60101;BME280;45978;53.646;55.930;2022-12-07T00:36:19;102337.63;;;-22.08;67.16
60101;BME280;45978;53.646;55.930;2022-12-07T00:37:21;102338.38;;;-22.14;66.92
60101;BME280;45978;53.646;55.930;2022-12-07T00:38:22;102334.75;;;-22.17;66.96
60101;BME280;45978;53.646;55.930;2022-12-07T00:39:24;102337.69;;;-22.19;67.01
60101;BME280;45978;53.646;55.930;2022-12-07T00:40:25;102329.88;;;-22.28;66.92
60101;BME280;45978;53.646;55.930;2022-12-07T00:41:28;102343.44;;;-22.26;66.95
60101;BME280;45978;53.646;55.930;2022-12-07T00:42:30;102345.50;;;-22.29;67.03
60101;BME280;45978;53.646;55.930;2022-12-07T00:43:31;102335.53;;;-22.29;66.79
60101;BME280;45978;53.646;55.930;2022-12-07T00:44:32;102343.44;;;-22.26;67.36
60101;BME280;45978;53.646;55.930;2022-12-07T00:45:34;102342.06;;;-22.24;67.09
60101;BME280;45978;53.646;55.930;2022-12-07T00:46:35;102341.78;;;-22.20;67.08
60101;BME280;45978;53.646;55.930;2022-12-07T00:47:36;102334.09;;;-22.21;67.02
60101;BME280;45978;53.646;55.930;2022-12-07T00:48:40;102328.72;;;-22.24;67.30
60101;BME280;45978;53.646;55.930;2022-12-07T00:49:41;102341.34;;;-22.23;67.37
60101;BME280;45978;53.646;55.930;2022-12-07T00:50:42;102331.38;;;-22.23;67.28
60101;BME280;45978;53.646;55.930;2022-12-07T00:51:43;102326.25;;;-22.24;67.18
60101;BME280;45978;53.646;55.930;2022-12-07T00:52:45;102329.09;;;-22.21;66.77
60101;BME280;45978;53.646;55.930;2022-12-07T00:53:48;102337.69;;;-22.19;67.11
60101;BME280;45978;53.646;55.930;2022-12-07T00:54:50;102326.91;;;-22.25;67.10
60101;BME280;45978;53.646;55.930;2022-12-07T00:55:51;102333.72;;;-22.24;66.89
60101;BME280;45978;53.646;55.930;2022-12-07T00:56:53;102327.13;;;-22.24;67.08
60101;BME280;45978;53.646;55.930;2022-12-07T00:57:54;102332.72;;;-22.19;67.10
60101;BME280;45978;53.646;55.930;2022-12-07T00:58:56;102342.88;;;-22.12;67.00
60101;BME280;45978;53.646;55.930;2022-12-07T00:59:58;102330.66;;;-22.16;66.99
60101;BME280;45978;53.646;55.930;2022-12-07T01:01:02;102332.69;;;-22.13;67.08
60101;BME280;45978;53.646;55.930;2022-12-07T01:02:04;102334.94;;;-22.15;66.94
60101;BME280;45978;53.646;55.930;2022-12-07T01:03:06;102345.56;;;-22.10;66.88
60101;BME280;45978;53.646;55.930;2022-12-07T01:04:08;102339.94;;;-22.15;66.89
60101;BME280;45978;53.646;55.930;2022-12-07T01:05:10;102334.28;;;-22.14;66.66
60101;BME280;45978;53.646;55.930;2022-12-07T01:06:15;102334.28;;;-22.14;66.62
60101;BME280;45978;53.646;55.930;2022-12-07T01:07:16;102335.88;;;-22.14;66.46
60101;BME280;45978;53.646;55.930;2022-12-07T01:08:19;102331.34;;;-22.17;66.76
60101;BME280;45978;53.646;55.930;2022-12-07T01:09:21;102335.88;;;-22.14;66.60
60101;BME280;45978;53.646;55.930;2022-12-07T01:10:23;102336.28;;;-22.11;66.82
60101;BME280;45978;53.646;55.930;2022-12-07T01:11:27;102349.81;;;-22.04;66.92
60101;BME280;45978;53.646;55.930;2022-12-07T01:12:29;102329.03;;;-22.10;66.73
60101;BME280;45978;53.646;55.930;2022-12-07T01:13:31;102336.88;;;-22.01;66.96
60101;BME280;45978;53.646;55.930;2022-12-07T01:14:33;102334.88;;;-22.04;66.86
60101;BME280;45978;53.646;55.930;2022-12-07T01:15:34;102337.84;;;-22.06;66.81
60101;BME280;45978;53.646;55.930;2022-12-07T01:16:35;102334.47;;;-22.07;66.75
60101;BME280;45978;53.646;55.930;2022-12-07T01:17:37;102339.88;;;-22.09;66.76
60101;BME280;45978;53.646;55.930;2022-12-07T01:18:40;102340.19;;;-22.19;66.45
60101;BME280;45978;53.646;55.930;2022-12-07T01:19:41;102341.56;;;-22.21;66.45
60101;BME280;45978;53.646;55.930;2022-12-07T01:20:42;102340.66;;;-22.22;66.31
60101;BME280;45978;53.646;55.930;2022-12-07T01:21:43;102347.00;;;-22.18;66.67
60101;BME280;45978;53.646;55.930;2022-12-07T01:22:45;102338.84;;;-22.23;66.60
60101;BME280;45978;53.646;55.930;2022-12-07T01:23:46;102341.13;;;-22.19;66.67
60101;BME280;45978;53.646;55.930;2022-12-07T01:24:48;102349.03;;;-22.21;66.72
60101;BME280;45978;53.646;55.930;2022-12-07T01:26:00;102345.31;;;-22.30;66.55
60101;BME280;45978;53.646;55.930;2022-12-07T01:27:02;102350.69;;;-22.27;66.41
60101;BME280;45978;53.646;55.930;2022-12-07T01:28:03;102349.84;;;-22.33;66.25
60101;BME280;45978;53.646;55.930;2022-12-07T01:29:06;102338.31;;;-22.39;66.25
60101;BME280;45978;53.646;55.930;2022-12-07T01:30:09;102360.06;;;-22.43;66.32
60101;BME280;45978;53.646;55.930;2022-12-07T01:31:15;102356.00;;;-22.43;66.17
60101;BME280;45978;53.646;55.930;2022-12-07T01:32:17;102340.41;;;-22.47;66.46
60101;BME280;45978;53.646;55.930;2022-12-07T01:33:18;102350.56;;;-22.40;66.35
60101;BME280;45978;53.646;55.930;2022-12-07T01:34:19;102358.72;;;-22.47;66.43
60101;BME280;45978;53.646;55.930;2022-12-07T01:35:21;102343.41;;;-22.55;66.20
60101;BME280;45978;53.646;55.930;2022-12-07T01:36:32;102359.88;;;-22.50;66.10
60101;BME280;45978;53.646;55.930;2022-12-07T01:37:37;102355.41;;;-22.59;65.89
60101;BME280;45978;53.646;55.930;2022-12-07T01:38:39;102362.22;;;-22.63;65.70
60101;BME280;45978;53.646;55.930;2022-12-07T01:39:41;102351.41;;;-22.69;65.71
60101;BME280;45978;53.646;55.930;2022-12-07T01:40:42;102354.56;;;-22.70;65.69
60101;BME280;45978;53.646;55.930;2022-12-07T01:41:44;102359.34;;;-22.78;65.49
60101;BME280;45978;53.646;55.930;2022-12-07T01:42:46;102342.84;;;-22.83;65.63
60101;BME280;45978;53.646;55.930;2022-12-07T01:45:37;102354.41;;;-22.89;65.04
60101;BME280;45978;53.646;55.930;2022-12-07T01:46:40;102350.59;;;-22.92;65.23
60101;BME280;45978;53.646;55.930;2022-12-07T01:47:44;102342.28;;;-23.04;65.02
60101;BME280;45978;53.646;55.930;2022-12-07T01:48:46;102352.28;;;-23.15;65.00
60101;BME280;45978;53.646;55.930;2022-12-07T01:49:48;102360.66;;;-23.15;65.24
60101;BME280;45978;53.646;55.930;2022-12-07T01:50:51;102342.34;;;-23.21;65.01
60101;BME280;45978;53.646;55.930;2022-12-07T01:52:03;102344.16;;;-23.14;65.02
60101;BME280;45978;53.646;55.930;2022-12-07T01:53:09;102355.63;;;-23.09;65.31
60101;BME280;45978;53.646;55.930;2022-12-07T01:54:12;102353.38;;;-23.08;65.31
60101;BME280;45978;53.646;55.930;2022-12-07T01:55:16;102339.63;;;-23.17;65.37
60101;BME280;45978;53.646;55.930;2022-12-07T01:56:20;102334.00;;;-23.22;65.38
60101;BME280;45978;53.646;55.930;2022-12-07T01:57:24;102346.19;;;-23.18;65.73
60101;BME280;45978;53.646;55.930;2022-12-07T01:58:25;102343.22;;;-23.09;65.78
60101;BME280;45978;53.646;55.930;2022-12-07T01:59:27;102345.03;;;-23.08;66.08
60101;BME280;45978;53.646;55.930;2022-12-07T02:00:28;102352.19;;;-22.99;66.00
60101;BME280;45978;53.646;55.930;2022-12-07T02:01:30;102338.41;;;-22.97;65.91
60101;BME280;45978;53.646;55.930;2022-12-07T02:02:34;102345.38;;;-22.88;66.09
60101;BME280;45978;53.646;55.930;2022-12-07T02:03:39;102333.63;;;-22.89;66.11
60101;BME280;45978;53.646;55.930;2022-12-07T02:04:41;102342.22;;;-22.93;66.11
60101;BME280;45978;53.646;55.930;2022-12-07T02:05:44;102348.31;;;-22.85;66.22
60101;BME280;45978;53.646;55.930;2022-12-07T02:06:47;102344.72;;;-22.93;65.91
60101;BME280;45978;53.646;55.930;2022-12-07T02:07:51;102340.41;;;-22.94;66.21
60101;BME280;45978;53.646;55.930;2022-12-07T02:08:53;102349.47;;;-23.00;65.98
60101;BME280;45978;53.646;55.930;2022-12-07T02:09:55;102348.09;;;-22.92;66.15
60101;BME280;45978;53.646;55.930;2022-12-07T02:10:56;102347.19;;;-22.93;66.29
60101;BME280;45978;53.646;55.930;2022-12-07T02:12:00;102357.34;;;-22.86;66.25
60101;BME280;45978;53.646;55.930;2022-12-07T02:13:11;102349.84;;;-22.80;66.38
60101;BME280;45978;53.646;55.930;2022-12-07T02:14:13;102352.78;;;-22.71;66.41
60101;BME280;45978;53.646;55.930;2022-12-07T02:15:15;102355.25;;;-22.71;66.29
60101;BME280;45978;53.646;55.930;2022-12-07T02:16:32;102355.69;;;-22.68;66.39
60101;BME280;45978;53.646;55.930;2022-12-07T02:17:47;102362.75;;;-22.77;66.17
60101;BME280;45978;53.646;55.930;2022-12-07T02:20:47;102356.41;;;-22.81;66.47
60101;BME280;45978;53.646;55.930;2022-12-07T02:24:55;102357.09;;;-22.82;66.35
60101;BME280;45978;53.646;55.930;2022-12-07T02:27:52;102353.94;;;-22.81;66.15
60101;BME280;45978;53.646;55.930;2022-12-07T02:30:29;102351.22;;;-22.82;66.13
60101;BME280;45978;53.646;55.930;2022-12-07T02:31:32;102352.59;;;-22.84;66.49
60101;BME280;45978;53.646;55.930;2022-12-07T02:34:11;102355.28;;;-22.83;66.34
60101;BME280;45978;53.646;55.930;2022-12-07T02:35:17;102357.06;;;-22.76;66.34
60101;BME280;45978;53.646;55.930;2022-12-07T02:36:31;102361.16;;;-22.77;66.42
60101;BME280;45978;53.646;55.930;2022-12-07T02:39:44;102361.41;;;-22.81;66.06
60101;BME280;45978;53.646;55.930;2022-12-07T02:42:16;102349.41;;;-22.78;66.13
60101;BME280;45978;53.646;55.930;2022-12-07T02:43:27;102349.56;;;-22.70;67.00
60101;BME280;45978;53.646;55.930;2022-12-07T02:44:31;102351.13;;;-22.60;67.40
60101;BME280;45978;53.646;55.930;2022-12-07T02:45:36;102347.69;;;-22.54;67.30
60101;BME280;45978;53.646;55.930;2022-12-07T02:46:46;102347.28;;;-22.58;67.26
60101;BME280;45978;53.646;55.930;2022-12-07T02:47:52;102350.16;;;-22.54;67.87
60101;BME280;45978;53.646;55.930;2022-12-07T02:48:56;102339.97;;;-22.50;68.53
60101;BME280;45978;53.646;55.930;2022-12-07T02:50:05;102338.84;;;-22.52;68.53
60101;BME280;45978;53.646;55.930;2022-12-07T02:51:08;102334.31;;;-22.49;68.86
60101;BME280;45978;53.646;55.930;2022-12-07T02:52:09;102331.19;;;-22.54;68.88
60101;BME280;45978;53.646;55.930;2022-12-07T02:53:33;102346.97;;;-22.42;68.82
60101;BME280;45978;53.646;55.930;2022-12-07T02:54:35;102342.19;;;-22.46;69.24
60101;BME280;45978;53.646;55.930;2022-12-07T02:55:40;102338.78;;;-22.41;69.62
60101;BME280;45978;53.646;55.930;2022-12-07T02:56:59;102338.75;;;-22.35;69.58
60101;BME280;45978;53.646;55.930;2022-12-07T03:00:09;102336.91;;;-22.31;69.79
60101;BME280;45978;53.646;55.930;2022-12-07T03:01:24;102331.97;;;-22.37;70.07
60101;BME280;45978;53.646;55.930;2022-12-07T03:03:48;102324.06;;;-22.40;69.89
60101;BME280;45978;53.646;55.930;2022-12-07T03:06:34;102332.38;;;-22.28;70.02
60101;BME280;45978;53.646;55.930;2022-12-07T03:10:31;102344.81;;;-22.28;69.90
60101;BME280;45978;53.646;55.930;2022-12-07T03:11:52;102344.31;;;-22.61;69.28
60101;BME280;45978;53.646;55.930;2022-12-07T03:14:23;102325.25;;;-22.90;68.12
60101;BME280;45978;53.646;55.930;2022-12-07T03:16:39;102341.78;;;-22.96;67.71
60101;BME280;45978;53.646;55.930;2022-12-07T03:17:44;102344.25;;;-22.96;67.53
60101;BME280;45978;53.646;55.930;2022-12-07T03:19:00;102349.69;;;-22.93;67.34
60101;BME280;45978;53.646;55.930;2022-12-07T03:20:06;102342.47;;;-22.97;66.97
60101;BME280;45978;53.646;55.930;2022-12-07T03:21:12;102353.31;;;-22.91;67.14
60101;BME280;45978;53.646;55.930;2022-12-07T03:22:16;102348.56;;;-22.95;66.93
60101;BME280;45978;53.646;55.930;2022-12-07T03:23:19;102348.09;;;-22.92;67.04
60101;BME280;45978;53.646;55.930;2022-12-07T03:24:26;102362.56;;;-22.90;66.96
60101;BME280;45978;53.646;55.930;2022-12-07T03:25:30;102358.25;;;-22.85;66.63
60101;BME280;45978;53.646;55.930;2022-12-07T03:26:44;102358.69;;;-22.88;66.64
60101;BME280;45978;53.646;55.930;2022-12-07T03:27:57;102359.38;;;-22.83;66.78
60101;BME280;45978;53.646;55.930;2022-12-07T03:29:02;102355.09;;;-22.90;66.70
60101;BME280;45978;53.646;55.930;2022-12-07T03:30:26;102368.91;;;-22.98;66.67
60101;BME280;45978;53.646;55.930;2022-12-07T03:31:49;102383.44;;;-23.06;66.74
60101;BME280;45978;53.646;55.930;2022-12-07T03:34:35;102368.28;;;-23.02;67.00
60101;BME280;45978;53.646;55.930;2022-12-07T03:35:41;102375.69;;;-22.97;67.01
60101;BME280;45978;53.646;55.930;2022-12-07T03:36:58;102367.09;;;-22.93;67.22
60101;BME280;45978;53.646;55.930;2022-12-07T03:38:20;102353.53;;;-22.95;67.37
60101;BME280;45978;53.646;55.930;2022-12-07T03:39:44;102354.25;;;-23.02;67.49
60101;BME280;45978;53.646;55.930;2022-12-07T03:41:01;102368.47;;;-23.01;67.74
60101;BME280;45978;53.646;55.930;2022-12-07T03:42:07;102358.19;;;-23.15;67.65
60101;BME280;45978;53.646;55.930;2022-12-07T03:43:12;102348.69;;;-23.23;68.14
60101;BME280;45978;53.646;55.930;2022-12-07T03:44:14;102366.78;;;-23.19;68.04
60101;BME280;45978;53.646;55.930;2022-12-07T03:45:17;102357.97;;;-23.28;68.49
60101;BME280;45978;53.646;55.930;2022-12-07T03:47:43;102376.94;;;-23.23;68.47
60101;BME280;45978;53.646;55.930;2022-12-07T03:50:33;102347.78;;;-23.24;68.38
60101;BME280;45978;53.646;55.930;2022-12-07T03:52:11;102373.09;;;-23.15;68.70
60101;BME280;45978;53.646;55.930;2022-12-07T03:53:30;102367.41;;;-23.08;68.83
60101;BME280;45978;53.646;55.930;2022-12-07T03:55:49;102378.19;;;-22.97;68.81
60101;BME280;45978;53.646;55.930;2022-12-07T03:56:52;102385.41;;;-22.92;68.48
60101;BME280;45978;53.646;55.930;2022-12-07T03:57:58;102374.16;;;-23.02;68.53
60101;BME280;45978;53.646;55.930;2022-12-07T03:59:00;102372.81;;;-23.05;68.77
60101;BME280;45978;53.646;55.930;2022-12-07T04:00:04;102366.06;;;-23.18;68.71
60101;BME280;45978;53.646;55.930;2022-12-07T04:01:13;102386.59;;;-23.02;68.57
60101;BME280;45978;53.646;55.930;2022-12-07T04:02:14;102376.38;;;-22.98;68.66
60101;BME280;45978;53.646;55.930;2022-12-07T04:03:16;102381.78;;;-22.89;68.83
60101;BME280;45978;53.646;55.930;2022-12-07T04:04:18;102377.69;;;-22.83;68.99
60101;BME280;45978;53.646;55.930;2022-12-07T04:05:19;102383.13;;;-22.80;69.01
60101;BME280;45978;53.646;55.930;2022-12-07T04:06:21;102369.56;;;-22.87;68.84
60101;BME280;45978;53.646;55.930;2022-12-07T04:07:22;102373.44;;;-22.89;68.68
60101;BME280;45978;53.646;55.930;2022-12-07T04:08:24;102381.09;;;-22.88;69.00
60101;BME280;45978;53.646;55.930;2022-12-07T04:09:26;102375.88;;;-22.84;68.59
60101;BME280;45978;53.646;55.930;2022-12-07T04:10:28;102389.38;;;-22.70;68.60
60101;BME280;45978;53.646;55.930;2022-12-07T04:11:29;102378.97;;;-22.68;68.68
60101;BME280;45978;53.646;55.930;2022-12-07T04:12:31;102382.59;;;-22.66;68.44
60101;BME280;45978;53.646;55.930;2022-12-07T04:13:32;102382.09;;;-22.58;68.48
60101;BME280;45978;53.646;55.930;2022-12-07T04:14:53;102376.03;;;-22.65;68.28
60101;BME280;45978;53.646;55.930;2022-12-07T04:15:55;102369.94;;;-22.67;68.06
60101;BME280;45978;53.646;55.930;2022-12-07T04:16:58;102385.03;;;-22.60;68.06
60101;BME280;45978;53.646;55.930;2022-12-07T04:18:01;102378.81;;;-22.81;67.49
60101;BME280;45978;53.646;55.930;2022-12-07T04:19:02;102382.25;;;-22.91;67.69
60101;BME280;45978;53.646;55.930;2022-12-07T04:20:05;102393.53;;;-22.93;67.59
60101;BME280;45978;53.646;55.930;2022-12-07T04:21:08;102389.50;;;-22.93;67.55
60101;BME280;45978;53.646;55.930;2022-12-07T04:22:10;102382.03;;;-22.93;67.36
60101;BME280;45978;53.646;55.930;2022-12-07T04:23:11;102382.22;;;-22.86;67.59
60101;BME280;45978;53.646;55.930;2022-12-07T04:24:14;102383.81;;;-22.92;67.50
60101;BME280;45978;53.646;55.930;2022-12-07T04:25:15;102381.16;;;-22.99;67.24
60101;BME280;45978;53.646;55.930;2022-12-07T04:26:17;102382.72;;;-23.00;67.41
60101;BME280;45978;53.646;55.930;2022-12-07T04:27:18;102394.22;;;-22.89;67.16
60101;BME280;45978;53.646;55.930;2022-12-07T04:28:20;102384.03;;;-22.90;67.47
60101;BME280;45978;53.646;55.930;2022-12-07T04:29:25;102387.16;;;-22.80;67.53
60101;BME280;45978;53.646;55.930;2022-12-07T04:30:27;102395.97;;;-22.71;67.33
60101;BME280;45978;53.646;55.930;2022-12-07T04:31:28;102375.44;;;-22.81;67.54
60101;BME280;45978;53.646;55.930;2022-12-07T04:32:29;102363.00;;;-22.87;67.49
60101;BME280;45978;53.646;55.930;2022-12-07T04:33:31;102393.72;;;-22.75;67.29
60101;BME280;45978;53.646;55.930;2022-12-07T04:34:33;102396.16;;;-22.64;67.30
60101;BME280;45978;53.646;55.930;2022-12-07T04:35:35;102388.69;;;-22.64;67.41
60101;BME280;45978;53.646;55.930;2022-12-07T04:36:37;102397.22;;;-22.50;67.34
60101;BME280;45978;53.646;55.930;2022-12-07T04:37:38;102377.81;;;-22.59;67.20
60101;BME280;45978;53.646;55.930;2022-12-07T04:38:40;102378.66;;;-22.47;67.04
60101;BME280;45978;53.646;55.930;2022-12-07T04:39:44;102384.50;;;-22.41;66.86
60101;BME280;45978;53.646;55.930;2022-12-07T04:40:48;102396.88;;;-22.29;66.77
60101;BME280;45978;53.646;55.930;2022-12-07T04:41:52;102408.84;;;-22.27;66.69
60101;BME280;45978;53.646;55.930;2022-12-07T04:42:53;102361.91;;;-22.42;66.55
60101;BME280;45978;53.646;55.930;2022-12-07T04:43:56;102390.66;;;-22.14;66.61
60101;BME280;45978;53.646;55.930;2022-12-07T04:44:58;102412.94;;;-21.98;66.61
60101;BME280;45978;53.646;55.930;2022-12-07T04:45:59;102381.31;;;-22.04;66.63
60101;BME280;45978;53.646;55.930;2022-12-07T04:47:00;102413.63;;;-21.93;66.62
60101;BME280;45978;53.646;55.930;2022-12-07T04:48:02;102406.19;;;-21.99;66.71
60101;BME280;45978;53.646;55.930;2022-12-07T04:49:03;102410.00;;;-21.95;66.79
60101;BME280;45978;53.646;55.930;2022-12-07T04:50:05;102397.66;;;-22.12;66.75
60101;BME280;45978;53.646;55.930;2022-12-07T04:51:07;102413.25;;;-22.07;66.93
60101;BME280;45978;53.646;55.930;2022-12-07T04:52:08;102412.84;;;-22.16;66.78
60101;BME280;45978;53.646;55.930;2022-12-07T04:53:10;102407.66;;;-22.18;67.19
60101;BME280;45978;53.646;55.930;2022-12-07T04:54:12;102410.38;;;-22.16;67.15
60101;BME280;45978;53.646;55.930;2022-12-07T04:55:14;102381.94;;;-22.29;67.41
60101;BME280;45978;53.646;55.930;2022-12-07T04:56:15;102413.97;;;-22.14;67.50
60101;BME280;45978;53.646;55.930;2022-12-07T04:57:17;102383.13;;;-22.39;67.31
60101;BME280;45978;53.646;55.930;2022-12-07T04:58:18;102413.16;;;-22.26;67.76
60101;BME280;45978;53.646;55.930;2022-12-07T04:59:19;102411.84;;;-22.35;67.96
60101;BME280;45978;53.646;55.930;2022-12-07T05:00:21;102422.00;;;-22.28;68.27
60101;BME280;45978;53.646;55.930;2022-12-07T05:01:23;102406.88;;;-22.35;68.26
60101;BME280;45978;53.646;55.930;2022-12-07T05:02:24;102414.56;;;-22.33;68.44
60101;BME280;45978;53.646;55.930;2022-12-07T05:03:25;102413.66;;;-22.28;68.57
60101;BME280;45978;53.646;55.930;2022-12-07T05:04:27;102417.44;;;-22.25;68.47
60101;BME280;45978;53.646;55.930;2022-12-07T05:05:29;102422.50;;;-22.30;68.51
60101;BME280;45978;53.646;55.930;2022-12-07T05:06:32;102424.28;;;-22.29;68.71
60101;BME280;45978;53.646;55.930;2022-12-07T05:07:34;102416.81;;;-22.29;69.14
60101;BME280;45978;53.646;55.930;2022-12-07T05:08:36;102400.78;;;-22.43;69.17
60101;BME280;45978;53.646;55.930;2022-12-07T05:09:38;102401.47;;;-22.38;69.16
60101;BME280;45978;53.646;55.930;2022-12-07T05:10:39;102421.25;;;-22.21;69.97
60101;BME280;45978;53.646;55.930;2022-12-07T05:11:42;102413.78;;;-22.21;69.73
60101;BME280;45978;53.646;55.930;2022-12-07T05:12:44;102414.22;;;-22.18;69.50
60101;BME280;45978;53.646;55.930;2022-12-07T05:13:46;102420.59;;;-22.20;69.48
60101;BME280;45978;53.646;55.930;2022-12-07T05:14:47;102404.34;;;-22.29;69.38
60101;BME280;45978;53.646;55.930;2022-12-07T05:15:49;102422.34;;;-22.13;69.67
60101;BME280;45978;53.646;55.930;2022-12-07T05:16:51;102426.41;;;-22.08;69.64
60101;BME280;45978;53.646;55.930;2022-12-07T05:17:55;102423.63;;;-21.99;69.74
60101;BME280;45978;53.646;55.930;2022-12-07T05:18:58;102404.66;;;-22.09;69.97
60101;BME280;45978;53.646;55.930;2022-12-07T05:19:59;102423.09;;;-21.90;69.77
60101;BME280;45978;53.646;55.930;2022-12-07T05:21:01;102394.41;;;-22.00;69.96
60101;BME280;45978;53.646;55.930;2022-12-07T05:22:02;102430.94;;;-21.76;69.89
60101;BME280;45978;53.646;55.930;2022-12-07T05:23:04;102435.66;;;-21.72;69.80
60101;BME280;45978;53.646;55.930;2022-12-07T05:24:07;102430.88;;;-21.70;69.76
60101;BME280;45978;53.646;55.930;2022-12-07T05:25:09;102438.09;;;-21.66;69.50
60101;BME280;45978;53.646;55.930;2022-12-07T05:26:12;102434.94;;;-21.65;69.59
60101;BME280;45978;53.646;55.930;2022-12-07T05:27:17;102429.00;;;-21.60;69.56
60101;BME280;45978;53.646;55.930;2022-12-07T05:28:18;102440.25;;;-21.51;69.42
60101;BME280;45978;53.646;55.930;2022-12-07T05:29:20;102432.78;;;-21.51;69.60
60101;BME280;45978;53.646;55.930;2022-12-07T05:30:22;102434.78;;;-21.48;69.45
60101;BME280;45978;53.646;55.930;2022-12-07T05:31:24;102442.72;;;-21.45;69.30
60101;BME280;45978;53.646;55.930;2022-12-07T05:32:26;102423.88;;;-21.43;69.36
60101;BME280;45978;53.646;55.930;2022-12-07T05:33:27;102439.56;;;-21.26;69.31
60101;BME280;45978;53.646;55.930;2022-12-07T05:34:28;102427.50;;;-21.23;69.70
60101;BME280;45978;53.646;55.930;2022-12-07T05:35:31;102436.72;;;-21.10;69.44
60101;BME280;45978;53.646;55.930;2022-12-07T05:36:32;102440.03;;;-21.04;69.31
60101;BME280;45978;53.646;55.930;2022-12-07T05:37:33;102434.00;;;-21.12;69.49
60101;BME280;45978;53.646;55.930;2022-12-07T05:38:34;102435.59;;;-21.12;69.50
60101;BME280;45978;53.646;55.930;2022-12-07T05:39:37;102423.53;;;-21.33;69.19
60101;BME280;45978;53.646;55.930;2022-12-07T05:40:41;102438.09;;;-21.42;69.25
60101;BME280;45978;53.646;55.930;2022-12-07T05:41:43;102441.63;;;-21.53;69.21
60101;BME280;45978;53.646;55.930;2022-12-07T05:43:03;102424.03;;;-21.36;69.64
60101;BME280;45978;53.646;55.930;2022-12-07T05:44:05;102445.31;;;-21.08;69.87
60101;BME280;45978;53.646;55.930;2022-12-07T05:45:07;102449.50;;;-20.96;69.71
60101;BME280;45978;53.646;55.930;2022-12-07T05:46:09;102446.38;;;-20.82;69.81
60101;BME280;45978;53.646;55.930;2022-12-07T05:47:11;102446.91;;;-20.66;69.87
60101;BME280;45978;53.646;55.930;2022-12-07T05:48:14;102430.38;;;-20.53;69.76
60101;BME280;45978;53.646;55.930;2022-12-07T05:49:18;102430.75;;;-20.13;69.65
60101;BME280;45978;53.646;55.930;2022-12-07T05:50:19;102440.75;;;-19.82;69.39
60101;BME280;45978;53.646;55.930;2022-12-07T05:51:34;102443.00;;;-19.65;67.91
60101;BME280;45978;53.646;55.930;2022-12-07T05:52:35;102436.47;;;-19.70;66.40
60101;BME280;45978;53.646;55.930;2022-12-07T05:53:37;102437.78;;;-19.66;65.68
60101;BME280;45978;53.646;55.930;2022-12-07T05:54:40;102443.78;;;-19.59;64.73
60101;BME280;45978;53.646;55.930;2022-12-07T05:55:41;102445.50;;;-19.52;64.76
60101;BME280;45978;53.646;55.930;2022-12-07T05:56:43;102431.94;;;-19.41;63.81
60101;BME280;45978;53.646;55.930;2022-12-07T05:57:44;102403.56;;;-19.47;63.73